Time;durP1;ratioP1;P1;durP2;ratioP2;P2;SDS_P1;SDS_P2;PMS_P1;PMS_P2;Temp;Humidity;BMP_temperature;BMP_pressure;BME280_temperature;BME280_humidity;BME280_pressure;Samples;Min_cycle;Max_cycle;Signal;HPM_P1;HPM_P2
2022/06/07 00:02:29;;;;;;;6.75;5.78;;;;;;;19.11;100.00;96331.88;5022260;28;20074;-50
2022/06/07 00:04:58;;;;;;;7.82;6.07;;;;;;;18.81;100.00;96325.19;5024254;28;20065;-47
2022/06/07 00:07:28;;;;;;;8.82;6.30;;;;;;;18.47;100.00;96345.53;5025647;28;20110;-46
2022/06/07 00:09:56;;;;;;;6.65;6.03;;;;;;;18.58;100.00;96349.50;5023531;28;20096;-47
2022/06/07 00:12:25;;;;;;;11.65;7.03;;;;;;;18.58;100.00;96355.69;5025034;28;20121;-50
2022/06/07 00:14:54;;;;;;;10.50;7.22;;;;;;;18.47;100.00;96348.19;5026695;28;20065;-47
2022/06/07 00:17:22;;;;;;;9.13;7.65;;;;;;;18.47;100.00;96354.38;5027008;28;20429;-45
2022/06/07 00:19:51;;;;;;;10.80;7.35;;;;;;;18.47;100.00;96356.22;5020950;28;20069;-48
2022/06/07 00:22:19;;;;;;;10.95;7.70;;;;;;;18.49;100.00;96354.19;5027589;28;20457;-51
2022/06/07 00:24:49;;;;;;;10.45;7.57;;;;;;;18.52;100.00;96352.97;5026697;28;20076;-49
2022/06/07 00:27:18;;;;;;;7.85;7.03;;;;;;;18.69;100.00;96340.94;5023705;28;20200;-45
2022/06/07 00:29:47;;;;;;;11.68;8.15;;;;;;;18.90;100.00;96337.34;5027316;28;20061;-47
2022/06/07 00:32:16;;;;;;;8.68;7.78;;;;;;;18.93;100.00;96334.28;5028315;28;20441;-45
2022/06/07 00:34:47;;;;;;;10.18;8.30;;;;;;;18.89;100.00;96344.56;5023533;28;20428;-46
2022/06/07 00:37:16;;;;;;;12.02;8.35;;;;;;;18.81;100.00;96350.06;5024365;28;20089;-44
2022/06/07 00:39:44;;;;;;;10.25;8.68;;;;;;;18.79;100.00;96356.59;5023503;28;20530;-44
2022/06/07 00:42:15;;;;;;;9.75;8.05;;;;;;;18.78;100.00;96345.09;5024539;28;20084;-49
2022/06/07 00:44:46;;;;;;;10.27;7.82;;;;;;;18.78;100.00;96354.97;5026388;28;20065;-47
2022/06/07 00:47:18;;;;;;;10.52;8.40;;;;;;;18.76;100.00;96357.03;5025652;28;20122;-49
2022/06/07 00:49:50;;;;;;;13.80;8.40;;;;;;;18.77;100.00;96361.34;5025080;28;20080;-45
2022/06/07 00:52:21;;;;;;;10.68;8.50;;;;;;;18.83;100.00;96363.22;5024038;28;20081;-46
2022/06/07 00:54:49;;;;;;;;;;;;;;;18.76;100.00;96357.03;5027738;28;20572;-50
2022/06/07 00:57:19;;;;;;;11.70;8.60;;;;;;;18.56;100.00;96360.38;5023715;28;19960;-48
2022/06/07 00:59:48;;;;;;;12.82;8.68;;;;;;;18.54;100.00;96356.25;5025591;28;20487;-49
2022/06/07 01:02:16;;;;;;;10.43;7.57;;;;;;;18.32;100.00;96361.69;5022423;28;20054;-47
2022/06/07 01:04:44;;;;;;;11.70;8.02;;;;;;;18.19;100.00;96362.41;5025859;28;20077;-47
2022/06/07 01:12:47;;;;;;;12.05;8.25;;;;;;;18.24;100.00;96370.66;5017649;28;20077;-47
2022/06/07 01:15:16;;;;;;;8.68;7.45;;;;;;;18.16;100.00;96380.66;5023862;28;20057;-46
2022/06/07 01:17:45;;;;;;;9.18;6.70;;;;;;;17.72;100.00;96376.34;5025659;28;20476;-48
2022/06/07 01:20:13;;;;;;;8.70;6.75;;;;;;;17.81;100.00;96369.91;5022066;28;20070;-47
2022/06/07 01:22:43;;;;;;;9.02;6.32;;;;;;;18.33;100.00;96370.50;5023804;28;20104;-47
2022/06/07 01:25:12;;;;;;;7.82;6.43;;;;;;;18.30;100.00;96365.56;5017877;28;20069;-44
2022/06/07 01:27:40;;;;;;;9.18;7.30;;;;;;;17.97;100.00;96369.63;5025602;28;20451;-47
2022/06/07 01:30:10;;;;;;;9.15;7.20;;;;;;;17.74;100.00;96363.66;5022479;28;20083;-47
2022/06/07 01:32:38;;;;;;;8.05;6.15;;;;;;;17.61;100.00;96363.53;5025771;28;20065;-51
2022/06/07 01:35:08;;;;;;;8.38;6.68;;;;;;;17.56;100.00;96364.13;5016400;28;20072;-47
2022/06/07 01:37:37;;;;;;;9.35;7.00;;;;;;;17.62;100.00;96365.19;5024922;28;20069;-46
2022/06/07 01:42:54;;;;;;;8.77;6.20;;;;;;;17.38;100.00;96356.56;5017009;28;20080;-48
2022/06/07 01:45:24;;;;;;;9.85;6.63;;;;;;;17.34;100.00;96352.59;5017314;28;20073;-53
2022/06/07 01:47:52;;;;;;;7.05;6.05;;;;;;;17.38;100.00;96353.03;5025475;28;20543;-48
2022/06/07 01:50:21;;;;;;;8.48;6.53;;;;;;;17.29;100.00;96342.53;5037845;28;20511;-52
2022/06/07 01:52:50;;;;;;;10.75;6.80;;;;;;;17.36;100.00;96345.25;5020775;28;20041;-45
2022/06/07 01:55:20;;;;;;;11.13;6.68;;;;;;;17.59;100.00;96339.75;5024752;28;20056;-50
2022/06/07 01:57:49;;;;;;;8.93;7.18;;;;;;;17.32;100.00;96341.31;5025878;28;20045;-52
2022/06/07 02:00:18;;;;;;;9.27;7.05;;;;;;;17.27;100.00;96344.56;5026901;28;20061;-48
2022/06/07 02:02:47;;;;;;;7.33;6.17;;;;;;;16.95;100.00;96348.50;5017951;28;20404;-49
2022/06/07 02:05:17;;;;;;;11.38;6.38;;;;;;;16.99;100.00;96343.63;5025035;28;20582;-44
2022/06/07 02:07:45;;;;;;;8.40;5.90;;;;;;;16.99;100.00;96343.63;5025825;28;20080;-51
2022/06/07 02:10:14;;;;;;;8.00;5.38;;;;;;;16.91;100.00;96338.41;5023179;28;20095;-50
2022/06/07 02:12:44;;;;;;;8.18;5.38;;;;;;;16.88;100.00;96330.78;5020043;28;20069;-49
2022/06/07 02:15:12;;;;;;;7.07;5.97;;;;;;;17.05;100.00;96313.56;5024761;28;20045;-52
2022/06/07 02:17:41;;;;;;;6.85;5.57;;;;;;;17.16;100.00;96318.41;5025896;28;20550;-48
2022/06/07 02:20:10;;;;;;;8.80;6.40;;;;;;;17.19;100.00;96307.34;5024835;28;20465;-51
2022/06/07 02:22:39;;;;;;;6.93;5.93;;;;;;;17.25;100.00;96295.94;5029212;28;20099;-51
2022/06/07 02:25:08;;;;;;;9.32;6.25;;;;;;;17.21;100.00;96293.84;5025067;28;20087;-44
2022/06/07 02:27:36;;;;;;;7.50;6.47;;;;;;;17.22;100.00;96306.97;5030254;28;20164;-46
2022/06/07 02:30:09;;;;;;;8.55;6.53;;;;;;;17.44;100.00;96310.47;5028332;28;20068;-46
2022/06/07 02:32:37;;;;;;;7.95;5.85;;;;;;;17.05;100.00;96305.56;5023620;28;20069;-44
2022/06/07 02:35:07;;;;;;;9.65;6.03;;;;;;;16.93;100.00;96309.72;5023136;28;20063;-45
2022/06/07 02:37:37;;;;;;;10.93;6.65;;;;;;;16.98;100.00;96315.34;5027278;28;20068;-46
2022/06/07 02:40:07;;;;;;;8.70;6.43;;;;;;;16.98;100.00;96310.00;5028557;28;20459;-50
2022/06/07 02:42:35;;;;;;;10.07;6.60;;;;;;;16.97;100.00;96309.19;5025076;28;20479;-47
2022/06/07 02:45:06;;;;;;;9.60;6.95;;;;;;;17.09;100.00;96306.84;5029617;28;20072;-46
2022/06/07 02:47:35;;;;;;;8.25;6.93;;;;;;;17.58;100.00;96299.91;5024682;28;20065;-44
2022/06/07 02:50:04;;;;;;;9.02;7.30;;;;;;;17.55;100.00;96301.16;5026799;28;20073;-50
2022/06/07 02:52:33;;;;;;;8.25;7.10;;;;;;;17.55;100.00;96301.16;5027982;28;20056;-44
2022/06/07 02:55:01;;;;;;;7.85;6.93;;;;;;;17.25;100.00;96306.59;5028596;28;20084;-45
2022/06/07 02:57:29;;;;;;;9.13;7.28;;;;;;;17.12;100.00;96317.13;5028304;28;20079;-49
2022/06/07 03:00:02;;;;;;;8.60;6.90;;;;;;;17.14;100.00;96323.09;5026803;28;20065;-47
2022/06/07 03:02:32;;;;;;;9.40;7.20;;;;;;;17.02;100.00;96316.59;5030021;28;20068;-47
2022/06/07 03:05:00;;;;;;;9.85;7.45;;;;;;;16.79;100.00;96316.75;5025339;28;20075;-48
2022/06/07 03:07:29;;;;;;;8.43;7.20;;;;;;;17.10;100.00;96321.81;5026450;28;20459;-53
2022/06/07 03:09:58;;;;;;;9.02;6.75;;;;;;;17.07;100.00;96312.38;5020997;28;20080;-46
2022/06/07 03:12:26;;;;;;;8.82;7.40;;;;;;;17.03;100.00;96321.75;5027333;28;20473;-49
2022/06/07 03:14:55;;;;;;;9.13;6.80;;;;;;;17.07;100.00;96325.69;5021465;28;20112;-48
2022/06/07 03:17:24;;;;;;;8.05;6.30;;;;;;;17.00;100.00;96327.47;5029182;28;20096;-49
2022/06/07 03:19:53;;;;;;;7.75;6.55;;;;;;;16.99;100.00;96333.78;5021300;28;20072;-47
2022/06/07 03:22:23;;;;;;;7.18;5.50;;;;;;;17.17;100.00;96329.88;5023723;28;20069;-47
2022/06/07 03:24:51;;;;;;;7.40;6.03;;;;;;;17.12;100.00;96334.94;5026797;28;20084;-49
2022/06/07 03:27:20;;;;;;;7.22;6.30;;;;;;;17.13;100.00;96333.94;5030279;28;20076;-45
2022/06/07 03:29:48;;;;;;;9.48;6.10;;;;;;;17.09;100.00;96334.31;5022439;28;20637;-44
2022/06/07 03:32:16;;;;;;;6.80;5.95;;;;;;;17.22;100.00;96338.97;5027045;28;20527;-47
2022/06/07 03:34:45;;;;;;;6.57;5.88;;;;;;;17.15;100.00;96335.41;5025412;28;20084;-44
2022/06/07 03:37:15;;;;;;;6.05;5.40;;;;;;;17.57;100.00;96323.09;5025568;28;20146;-46
2022/06/07 03:39:43;;;;;;;6.95;5.13;;;;;;;17.44;100.00;96334.44;5027962;28;20776;-44
2022/06/07 03:42:13;;;;;;;6.13;5.50;;;;;;;17.61;100.00;96326.19;5021216;28;20073;-47
2022/06/07 03:44:41;;;;;;;7.30;5.35;;;;;;;17.68;100.00;96329.75;5025325;28;20073;-44
2022/06/07 03:47:10;;;;;;;7.65;5.47;;;;;;;17.79;100.00;96329.28;5023570;28;20065;-44
2022/06/07 03:49:38;;;;;;;8.48;6.15;;;;;;;17.90;100.00;96333.25;5021255;28;20460;-48
2022/06/07 03:52:07;;;;;;;7.75;6.18;;;;;;;18.13;100.00;96325.00;5025171;28;20483;-45
2022/06/07 03:54:38;;;;;;;9.00;6.70;;;;;;;18.16;100.00;96324.59;5026532;28;20077;-45
2022/06/07 03:57:08;;;;;;;7.70;6.72;;;;;;;18.07;100.00;96321.28;5023442;28;20554;-47
2022/06/07 03:59:37;;;;;;;8.32;6.70;;;;;;;18.07;100.00;96317.78;5021938;28;20057;-47
2022/06/07 04:02:06;;;;;;;7.43;6.72;;;;;;;18.02;100.00;96321.84;5026384;28;20061;-55
2022/06/07 04:04:35;;;;;;;8.50;6.70;;;;;;;17.96;100.00;96329.78;5024516;28;20064;-48
2022/06/07 04:09:51;;;;;;;7.53;5.70;;;;;;;17.81;100.00;96327.22;5018708;28;20093;-45
2022/06/07 04:12:20;;;;;;;6.28;5.07;;;;;;;17.70;100.00;96317.88;5027196;28;20069;-47
2022/06/07 04:14:48;;;;;;;5.47;4.82;;;;;;;17.95;100.00;96320.97;5021558;28;20599;-43
2022/06/07 04:17:17;;;;;;;6.15;4.82;;;;;;;18.06;100.00;96302.78;5017222;28;20061;-46
2022/06/07 04:19:45;;;;;;;8.10;3.90;;;;;;;17.81;100.00;96305.88;5016021;28;20096;-48
2022/06/07 04:22:14;;;;;;;5.40;3.83;;;;;;;18.17;100.00;96315.56;5033594;28;20053;-50
2022/06/07 04:24:42;;;;;;;6.07;4.03;;;;;;;17.97;100.00;96305.59;5025549;28;20464;-49
2022/06/07 04:27:12;;;;;;;4.72;4.20;;;;;;;17.84;100.00;96324.19;5027545;28;20072;-51
2022/06/07 04:29:42;;;;;;;4.05;3.65;;;;;;;17.81;100.00;96321.88;5025608;28;20534;-42
2022/06/07 04:32:12;;;;;;;4.50;3.33;;;;;;;17.73;100.00;96322.00;5018523;28;20065;-50
2022/06/07 04:34:41;;;;;;;;;;;;;;;17.65;100.00;96309.66;5026198;28;20076;-48
2022/06/07 04:37:09;;;;;;;3.50;3.20;;;;;;;17.67;100.00;96317.44;5022107;28;19964;-44
2022/06/07 04:39:38;;;;;;;3.70;3.40;;;;;;;17.59;100.00;96312.25;5026537;28;20100;-44
2022/06/07 04:42:06;;;;;;;4.75;3.38;;;;;;;17.31;100.00;96321.84;5024722;28;20072;-51
2022/06/07 04:44:36;;;;;;;4.22;3.55;;;;;;;17.48;100.00;96319.75;5026049;28;20072;-46
2022/06/07 04:47:05;;;;;;;5.10;4.10;;;;;;;17.31;100.00;96313.84;5026632;28;20077;-44
2022/06/07 04:49:33;;;;;;;4.25;3.83;;;;;;;17.52;100.00;96314.84;5024184;28;20069;-44
2022/06/07 04:52:02;;;;;;;4.88;3.92;;;;;;;17.79;100.00;96314.09;5024374;28;20088;-50
2022/06/07 04:54:48;;;;;;;4.65;3.70;;;;;;;17.91;100.00;96311.72;5021384;28;20108;-44
2022/06/07 04:57:17;;;;;;;6.25;3.70;;;;;;;17.76;100.00;96311.81;5023176;28;20512;-44
2022/06/07 04:59:47;;;;;;;5.07;3.80;;;;;;;17.79;100.00;96308.75;5026326;28;20091;-44
2022/06/07 05:02:15;;;;;;;9.70;4.38;;;;;;;17.89;100.00;96312.91;5027326;28;20171;-44
2022/06/07 05:04:45;;;;;;;8.05;3.72;;;;;;;17.55;100.00;96317.97;5025746;28;20061;-48
2022/06/07 05:07:14;;;;;;;4.95;3.70;;;;;;;17.60;100.00;96313.91;5025923;28;20089;-47
2022/06/07 05:09:43;;;;;;;5.40;4.00;;;;;;;17.82;100.00;96320.88;5025242;28;20084;-48
2022/06/07 05:12:11;;;;;;;5.05;3.80;;;;;;;17.89;100.00;96323.59;5023185;28;20076;-46
2022/06/07 05:14:40;;;;;;;5.05;4.13;;;;;;;17.78;100.00;96319.59;5023277;28;20062;-46
2022/06/07 05:17:10;;;;;;;5.07;4.03;;;;;;;17.80;100.00;96322.91;5020203;28;20052;-43
2022/06/07 05:19:39;;;;;;;4.72;4.07;;;;;;;17.74;100.00;96315.66;5022967;28;20061;-47
2022/06/07 05:22:08;;;;;;;4.47;4.00;;;;;;;18.10;100.00;96309.38;5021590;28;20077;-46
2022/06/07 05:24:37;;;;;;;5.07;4.60;;;;;;;17.83;100.00;96319.03;5017616;28;20081;-50
2022/06/07 05:27:06;;;;;;;4.88;4.35;;;;;;;18.13;100.00;96316.97;5022240;28;20069;-45
2022/06/07 05:29:41;;;;;;;6.03;4.60;;;;;;;18.08;100.00;96316.75;5024895;28;20091;-45
2022/06/07 05:32:11;;;;;;;6.28;4.45;;;;;;;18.09;100.00;96316.53;5024771;28;20064;-49
2022/06/07 05:34:39;;;;;;;5.15;4.38;;;;;;;18.14;100.00;96310.66;5020445;28;20069;-46
2022/06/07 05:37:08;;;;;;;5.18;4.68;;;;;;;18.17;100.00;96308.41;5021299;28;20554;-47
2022/06/07 05:39:37;;;;;;;5.88;4.90;;;;;;;17.74;100.00;96311.13;5025264;28;20068;-48
2022/06/07 05:42:06;;;;;;;7.05;5.05;;;;;;;17.97;100.00;96310.13;5019994;28;20065;-49
2022/06/07 05:44:35;;;;;;;6.60;5.85;;;;;;;17.88;100.00;96312.09;5020734;28;20571;-46
2022/06/07 05:47:04;;;;;;;8.45;5.72;;;;;;;18.52;100.00;96302.22;5019239;28;20065;-45
2022/06/07 05:49:34;;;;;;;7.90;6.22;;;;;;;17.97;100.00;96316.28;5021274;28;20093;-50
2022/06/07 05:52:04;;;;;;;8.57;6.10;;;;;;;18.08;100.00;96312.25;5022010;28;20080;-47
2022/06/07 05:54:34;;;;;;;7.47;6.05;;;;;;;18.11;100.00;96311.03;5020394;28;20068;-47
2022/06/07 05:57:04;;;;;;;9.75;6.18;;;;;;;18.22;100.00;96307.81;5020982;28;20080;-49
2022/06/07 05:59:32;;;;;;;6.00;5.20;;;;;;;18.35;100.00;96299.88;5022604;28;20079;-48
2022/06/07 06:02:01;;;;;;;6.65;5.13;;;;;;;18.66;100.00;96302.09;5023735;28;20068;-52
2022/06/07 06:04:30;;;;;;;6.43;5.70;;;;;;;18.70;100.00;96300.66;5024622;28;20080;-48
2022/06/07 06:07:00;;;;;;;6.68;5.25;;;;;;;18.91;100.00;96302.41;5022539;28;20079;-50
2022/06/07 06:12:14;;;;;;;6.43;4.93;;;;;;;19.07;100.00;96298.56;5015128;28;20088;-48
2022/06/07 06:14:43;;;;;;;6.32;4.40;;;;;;;19.00;100.00;96299.56;5020082;28;20584;-48
2022/06/07 06:17:11;;;;;;;5.28;4.20;;;;;;;19.08;100.00;96296.69;5019671;28;20065;-48
2022/06/07 06:19:42;;;;;;;4.85;3.88;;;;;;;18.98;100.00;96291.75;5020190;28;20069;-47
2022/06/07 06:22:13;;;;;;;4.53;4.13;;;;;;;19.19;100.00;96298.78;5022108;28;20480;-55
2022/06/07 06:24:41;;;;;;;6.38;4.13;;;;;;;19.31;100.00;96296.34;5020161;28;20081;-46
2022/06/07 06:27:10;;;;;;;5.68;4.60;;;;;;;19.37;100.00;96296.38;5022436;28;20084;-52
2022/06/07 06:29:38;;;;;;;5.15;4.63;;;;;;;19.50;100.00;96300.06;5022908;28;20065;-53
2022/06/07 06:32:08;;;;;;;4.43;3.90;;;;;;;19.64;100.00;96301.75;5025386;28;20095;-50
2022/06/07 06:34:36;;;;;;;4.78;4.28;;;;;;;19.73;100.00;96289.00;5020645;28;20111;-46
2022/06/07 06:37:06;;;;;;;4.63;3.90;;;;;;;19.81;100.00;96299.47;5018584;28;20069;-56
2022/06/07 06:39:36;;;;;;;5.85;4.13;;;;;;;19.76;100.00;96292.09;5025422;28;20383;-53
2022/06/07 06:42:05;;;;;;;4.85;4.07;;;;;;;19.79;100.00;96298.88;5021376;28;20076;-48
2022/06/07 06:44:42;;;;;;;4.00;3.60;;;;;;;19.34;100.00;96294.09;5024198;28;20076;-47
2022/06/07 06:47:17;;;;;;;4.00;3.35;;;;;;;19.15;100.00;96305.56;5023460;28;20787;-45
2022/06/07 06:49:46;;;;;;;4.43;3.30;;;;;;;18.78;100.00;96304.22;5018564;28;20065;-50
2022/06/07 06:52:14;;;;;;;3.50;2.90;;;;;;;18.81;100.00;96309.16;5018372;28;20080;-48
2022/06/07 06:54:44;;;;;;;3.67;3.38;;;;;;;18.63;100.00;96312.34;5021386;28;20080;-48
2022/06/07 06:57:13;;;;;;;4.60;3.47;;;;;;;18.74;100.00;96311.78;5023856;28;20069;-53
2022/06/07 06:59:41;;;;;;;4.72;3.58;;;;;;;18.81;100.00;96315.31;5022164;28;20921;-49
2022/06/07 07:02:10;;;;;;;4.47;3.30;;;;;;;18.78;100.00;96310.38;5023141;28;20068;-53
2022/06/07 07:04:39;;;;;;;4.28;3.15;;;;;;;18.83;100.00;96323.16;5025760;28;20077;-52
2022/06/07 07:07:07;;;;;;;4.53;3.72;;;;;;;18.96;100.00;96313.34;5022844;28;20089;-51
2022/06/07 07:09:36;;;;;;;4.20;3.80;;;;;;;18.97;100.00;96317.66;5021071;28;20078;-47
2022/06/07 07:12:07;;;;;;;3.97;3.30;;;;;;;18.99;100.00;96314.75;5026923;28;20103;-47
2022/06/07 07:14:35;;;;;;;5.63;3.30;;;;;;;18.76;100.00;96316.97;5023920;28;20066;-53
2022/06/07 07:17:04;;;;;;;3.55;3.10;;;;;;;18.97;100.00;96324.84;5024695;28;20081;-50
2022/06/07 07:19:32;;;;;;;3.65;2.92;;;;;;;18.88;100.00;96321.50;5022638;28;20053;-47
2022/06/07 07:22:01;;;;;;;3.50;2.80;;;;;;;18.92;100.00;96325.41;5024687;28;20076;-51
2022/06/07 07:24:29;;;;;;;3.28;2.95;;;;;;;19.37;100.00;96320.44;5023854;28;20085;-47
2022/06/07 07:26:58;;;;;;;3.35;2.60;;;;;;;19.58;100.00;96323.94;5022458;28;20065;-54
2022/06/07 07:29:28;;;;;;;3.85;2.90;;;;;;;19.68;100.00;96319.88;5023750;28;20076;-53
2022/06/07 07:31:57;;;;;;;3.10;2.80;;;;;;;19.83;100.00;96316.97;5020628;28;20077;-54
2022/06/07 07:34:25;;;;;;;2.97;2.60;;;;;;;20.10;100.00;96320.47;5027255;28;20068;-52
2022/06/07 07:36:55;;;;;;;3.00;2.50;;;;;;;20.23;100.00;96318.78;5025853;28;20081;-51
2022/06/07 07:39:23;;;;;;;2.75;2.42;;;;;;;20.39;100.00;96321.03;5028680;28;20064;-49
2022/06/07 07:41:54;;;;;;;4.13;2.20;;;;;;;20.00;100.00;96320.06;5019915;28;20072;-46
2022/06/07 07:44:24;;;;;;;4.68;2.03;;;;;;;20.06;100.00;96329.97;5024263;28;20064;-46
2022/06/07 07:46:56;;;;;;;2.60;2.33;;;;;;;19.33;100.00;96329.03;5022662;28;20525;-46
2022/06/07 07:49:24;;;;;;;2.50;2.30;;;;;;;19.27;100.00;96335.19;5022490;28;20073;-47
2022/06/07 07:51:55;;;;;;;4.22;2.25;;;;;;;19.28;100.00;96337.69;5024309;28;20084;-51
2022/06/07 07:54:24;;;;;;;2.80;2.15;;;;;;;19.89;100.00;96331.41;5022099;28;20077;-48
2022/06/07 07:56:54;;;;;;;2.67;2.40;;;;;;;19.61;100.00;96326.19;5029767;28;20061;-48
2022/06/07 07:59:24;;;;;;;4.18;2.25;;;;;;;19.85;100.00;96328.28;5024540;28;20062;-44
2022/06/07 08:01:54;;;;;;;4.75;2.65;;;;;;;19.51;100.00;96331.13;5024359;28;20077;-44
2022/06/07 08:04:24;;;;;;;2.63;2.25;;;;;;;19.37;100.00;96327.59;5022178;28;20061;-46
2022/06/07 08:06:53;;;;;;;4.10;2.60;;;;;;;19.60;100.00;96336.06;5027566;28;20085;-51
2022/06/07 08:09:22;;;;;;;2.80;2.47;;;;;;;19.62;100.00;96339.38;5024582;28;20322;-55
2022/06/07 08:11:50;;;;;;;2.60;2.40;;;;;;;18.99;100.00;96346.81;5026312;28;20076;-51
2022/06/07 08:14:23;;;;;;;3.92;2.60;;;;;;;18.73;100.00;96356.41;5025829;28;20081;-48
2022/06/07 08:16:51;;;;;;;3.00;2.63;;;;;;;19.22;100.00;96343.81;5023560;28;20061;-46
2022/06/07 08:19:21;;;;;;;3.25;2.95;;;;;;;19.34;100.00;96347.56;5026029;28;20069;-51
2022/06/07 08:21:50;;;;;;;4.28;3.60;;;;;;;19.06;100.00;96342.31;5022157;28;20077;-48
2022/06/07 08:24:24;;;;;;;3.63;3.15;;;;;;;18.91;100.00;96360.38;5022299;28;20065;-53
2022/06/07 08:26:53;;;;;;;3.95;3.17;;;;;;;18.91;100.00;96355.03;5023577;28;20068;-47
2022/06/07 08:29:21;;;;;;;5.28;3.55;;;;;;;18.98;100.00;96356.69;5026643;28;20060;-56
2022/06/07 08:31:49;;;;;;;4.20;3.55;;;;;;;18.64;100.00;96354.03;5025177;28;20077;-48
2022/06/07 08:39:52;;;;;;;4.78;3.42;;;;;;;19.05;100.00;96356.72;5018974;28;20085;-54
2022/06/07 08:42:25;;;;;;;4.45;4.05;;;;;;;18.67;100.00;96353.66;5021904;28;20066;-52
2022/06/07 08:44:57;;;;;;;6.28;3.60;;;;;;;18.82;100.00;96361.56;5027466;28;20065;-48
2022/06/07 08:47:32;;;;;;;7.22;4.32;;;;;;;18.85;100.00;96356.63;5023227;28;20113;-51
2022/06/07 08:50:04;;;;;;;6.95;4.50;;;;;;;19.03;100.00;96350.78;5022415;28;20072;-47
2022/06/07 08:52:35;;;;;;;4.35;3.85;;;;;;;18.92;100.00;96341.44;5023963;28;20065;-46
2022/06/07 08:55:13;;;;;;;5.68;4.07;;;;;;;18.54;100.00;96348.25;5023883;28;20077;-51
2022/06/07 08:57:43;;;;;;;4.85;3.75;;;;;;;18.32;100.00;96352.84;5026585;28;20452;-47
2022/06/07 09:00:20;;;;;;;6.72;4.05;;;;;;;18.52;100.00;96353.78;5028175;28;20069;-46
2022/06/07 09:03:23;;;;;;;6.25;3.88;;;;;;;18.65;100.00;96351.19;5019277;28;20073;-54
2022/06/07 09:05:59;;;;;;;4.70;3.88;;;;;;;18.42;100.00;96347.97;5020629;28;20069;-53
2022/06/07 09:08:34;;;;;;;4.75;4.05;;;;;;;18.37;100.00;96358.41;5025084;28;20077;-51
2022/06/07 09:13:50;;;;;;;5.32;4.20;;;;;;;18.51;100.00;96360.13;5029243;28;20068;-51
2022/06/07 09:16:19;;;;;;;5.28;4.57;;;;;;;18.66;100.00;96357.34;5029290;28;20085;-52
2022/06/07 09:18:51;;;;;;;4.88;4.30;;;;;;;19.05;100.00;96351.38;5020481;28;20092;-49
2022/06/07 09:21:26;;;;;;;4.90;4.40;;;;;;;19.04;100.00;96351.59;5026149;28;20080;-53
2022/06/07 09:23:57;;;;;;;4.30;3.90;;;;;;;18.97;100.00;96354.25;5019519;28;20065;-49
2022/06/07 09:26:30;;;;;;;5.30;4.50;;;;;;;19.30;100.00;96357.00;5018835;28;20073;-47
2022/06/07 09:29:14;;;;;;;5.00;4.50;;;;;;;19.42;100.00;96347.38;5029220;28;20077;-49
2022/06/07 09:31:44;;;;;;;6.93;4.95;;;;;;;19.53;100.00;96348.63;5034165;28;20547;-50
2022/06/07 09:34:20;;;;;;;5.50;4.70;;;;;;;19.50;100.00;96353.56;5022874;28;20104;-50
2022/06/07 09:36:55;;;;;;;6.25;4.80;;;;;;;19.79;100.00;96342.53;5022337;28;20091;-52
2022/06/07 09:39:29;;;;;;;5.65;4.13;;;;;;;19.24;100.00;96338.28;5025460;28;20069;-51
2022/06/07 09:42:02;;;;;;;5.78;3.80;;;;;;;19.19;100.00;96349.56;5027442;28;20064;-52
2022/06/07 09:44:33;;;;;;;5.38;4.18;;;;;;;19.15;100.00;96351.81;5023103;28;20065;-49
2022/06/07 09:47:04;;;;;;;5.75;4.05;;;;;;;18.95;100.00;96349.06;5013000;28;20061;-49
2022/06/07 09:49:39;;;;;;;5.72;4.70;;;;;;;18.85;100.00;96353.16;5026728;28;20068;-49
2022/06/07 09:52:17;;;;;;;4.97;4.47;;;;;;;19.09;100.00;96355.28;5017124;28;20088;-52
2022/06/07 09:54:48;;;;;;;7.10;5.07;;;;;;;19.00;100.00;96358.38;5000138;28;20092;-46
2022/06/07 09:57:33;;;;;;;6.72;5.10;;;;;;;18.77;100.00;96351.47;4997568;28;20663;-53
2022/06/07 10:00:10;;;;;;;6.13;5.20;;;;;;;18.89;100.00;96343.69;5004529;28;20081;-49
2022/06/07 10:03:03;;;;;;;7.78;5.63;;;;;;;19.30;100.00;96340.13;5016287;28;20065;-48
2022/06/07 10:05:36;;;;;;;6.85;5.45;;;;;;;19.56;100.00;96342.88;5019590;28;20499;-48
2022/06/07 10:08:13;;;;;;;8.35;5.85;;;;;;;19.94;100.00;96339.63;5028557;28;20553;-48
2022/06/07 10:10:48;;;;;;;6.20;5.55;;;;;;;20.35;100.00;96338.56;5023730;28;20072;-47
2022/06/07 10:13:27;;;;;;;5.88;4.78;;;;;;;20.02;100.00;96335.91;5025630;28;20092;-50
2022/06/07 10:16:01;;;;;;;5.68;4.32;;;;;;;19.76;100.00;96326.88;5043333;28;20524;-48
2022/06/07 10:18:41;;;;;;;6.85;4.75;;;;;;;20.14;100.00;96331.59;5020093;28;20430;-46
2022/06/07 10:21:31;;;;;;;6.50;4.37;;;;;;;20.42;100.00;96319.78;5022760;28;20057;-46
2022/06/07 10:24:08;;;;;;;5.00;4.50;;;;;;;20.37;100.00;96329.28;5023530;28;20499;-50
2022/06/07 10:26:46;;;;;;;5.88;4.00;;;;;;;20.52;100.00;96323.72;5020193;28;20539;-48
2022/06/07 10:29:23;;;;;;;7.20;4.80;;;;;;;20.66;100.00;96324.50;5020913;28;20068;-54
2022/06/07 10:31:56;;;;;;;6.00;5.10;;;;;;;20.39;100.00;96329.88;5020530;28;20073;-48
2022/06/07 10:34:34;;;;;;;6.47;4.85;;;;;;;20.85;100.00;96328.13;5021230;28;20611;-56
2022/06/07 10:37:09;;;;;;;7.40;5.50;;;;;;;20.91;100.00;96323.78;5025439;28;20072;-46
2022/06/07 10:39:56;;;;;;;6.75;5.05;;;;;;;20.95;100.00;96323.13;5026890;28;20077;-50
2022/06/07 10:42:35;;;;;;;5.65;5.15;;;;;;;20.67;100.00;96326.13;5024180;28;20077;-52
2022/06/07 10:45:12;;;;;;;5.38;4.88;;;;;;;21.05;100.00;96326.19;5027617;28;20065;-57
2022/06/07 10:47:45;;;;;;;6.35;5.35;;;;;;;21.19;100.00;96324.25;5027182;28;20084;-49
2022/06/07 10:50:21;;;;;;;6.25;5.50;;;;;;;21.11;100.00;96319.16;5022666;28;20069;-54
2022/06/07 10:52:57;;;;;;;5.55;4.40;;;;;;;21.61;100.00;96307.72;5023596;28;20080;-49
2022/06/07 10:55:31;;;;;;;5.40;4.90;;;;;;;21.44;100.00;96307.41;5029195;28;20501;-48
2022/06/07 10:58:07;;;;;;;5.68;4.55;;;;;;;21.46;100.00;96308.84;5025518;28;20073;-54
2022/06/07 11:00:39;;;;;;;5.38;4.70;;;;;;;21.93;100.00;96309.31;5026173;28;20417;-51
2022/06/07 11:03:15;;;;;;;5.28;4.32;;;;;;;22.02;100.00;96310.69;5025026;28;20068;-54
2022/06/07 11:11:24;;;;;;;4.78;4.35;;;;;;;22.04;100.00;96300.53;5025103;28;20092;-46
2022/06/07 11:14:06;;;;;;;5.38;4.22;;;;;;;21.98;100.00;96311.34;5027465;28;20068;-52
2022/06/07 11:16:43;;;;;;;4.60;4.15;;;;;;;22.57;100.00;96296.50;5025092;28;20065;-47
2022/06/07 11:19:11;;;;;;;4.93;4.43;;;;;;;22.40;100.00;96293.63;5020095;28;20076;-50
2022/06/07 11:21:42;;;;;;;5.72;4.70;;;;;;;22.67;100.00;96296.00;5025365;28;20082;-52
2022/06/07 11:24:19;;;;;;;5.40;4.72;;;;;;;22.40;100.00;96288.25;5023091;28;20065;-46
2022/06/07 11:27:14;;;;;;;6.35;4.35;;;;;;;22.15;100.00;96304.41;5026666;28;20065;-52
2022/06/07 11:29:44;;;;;;;5.75;4.88;;;;;;;21.81;100.00;96297.66;5025295;28;20076;-47
2022/06/07 11:32:42;;;;;;;5.65;4.70;;;;;;;21.87;100.00;96296.78;5020705;28;20073;-48
2022/06/07 11:35:51;;;;;;;6.95;4.28;;;;;;;22.00;100.00;96296.66;5026537;28;20068;-52
2022/06/07 11:38:28;;;;;;;5.15;4.57;;;;;;;21.96;100.00;96297.34;5023045;28;20102;-49
2022/06/07 11:41:41;;;;;;;6.72;4.20;;;;;;;22.74;100.00;96292.19;5021111;28;20065;-50
2022/06/07 11:44:34;;;;;;;6.13;4.32;;;;;;;23.54;100.00;96290.31;5018752;28;20116;-51
2022/06/07 11:47:24;;;;;;;6.00;4.30;;;;;;;24.38;100.00;96290.97;5022188;28;20077;-53
2022/06/07 11:50:12;;;;;;;4.35;3.78;;;;;;;23.52;100.00;96287.84;5018855;28;20124;-54
2022/06/07 11:52:58;;;;;;;4.63;3.63;;;;;;;22.88;100.00;96284.78;5026504;28;20072;-51
2022/06/07 11:55:31;;;;;;;5.47;4.03;;;;;;;23.13;100.00;96292.75;5022021;28;20049;-50
2022/06/07 11:58:05;;;;;;;4.05;3.65;;;;;;;22.77;100.00;96282.03;5019418;28;20083;-47
2022/06/07 12:00:45;;;;;;;5.00;3.50;;;;;;;22.42;100.00;96288.84;5020361;28;20075;-49
2022/06/07 12:03:34;;;;;;;5.72;3.50;;;;;;;22.52;100.00;96289.13;5018667;28;20052;-51
2022/06/07 12:06:19;;;;;;;3.92;3.55;;;;;;;23.28;100.00;96284.28;5025723;28;20070;-53
2022/06/07 12:09:05;;;;;;;4.82;3.88;;;;;;;22.86;100.00;96283.38;5025812;28;20181;-57
2022/06/07 12:11:41;;;;;;;7.30;3.67;;;;;;;23.69;100.00;96285.34;5020068;28;20065;-51
2022/06/07 12:14:30;;;;;;;3.28;2.97;;;;;;;22.95;100.00;96274.81;5023332;28;20107;-50